Time;durP1;ratioP1;P1;durP2;ratioP2;P2;SDS_P1;SDS_P2;PMS_P1;PMS_P2;Temp;Humidity;BMP_temperature;BMP_pressure;BME280_temperature;BME280_humidity;BME280_pressure;Samples;Min_cycle;Max_cycle;Signal;HPM_P1;HPM_P2
2023/10/16 00:02:13;;;;;;;0.00;0.00;;;4.50;99.90;;;;;;5091354;28;20183;-62
2023/10/16 00:04:45;;;;;;;0.00;0.00;;;4.40;99.90;;;;;;5090989;28;20200;-63
2023/10/16 00:07:15;;;;;;;0.00;0.00;;;4.30;99.90;;;;;;5091222;28;20670;-63
2023/10/16 00:09:41;;;;;;;0.00;0.00;;;4.30;99.90;;;;;;5090932;28;20639;-63
2023/10/16 00:12:07;;;;;;;0.00;0.00;;;4.20;99.90;;;;;;5091034;28;20180;-60
2023/10/16 00:14:35;;;;;;;0.00;0.00;;;4.20;99.90;;;;;;5091415;28;20184;-62
2023/10/16 00:17:08;;;;;;;0.00;0.00;;;4.20;99.90;;;;;;5094710;28;20628;-62
2023/10/16 00:19:34;;;;;;;0.00;0.00;;;4.20;99.90;;;;;;5094925;28;21012;-61
2023/10/16 00:22:01;;;;;;;0.00;0.00;;;4.20;99.90;;;;;;5095078;28;20176;-62
2023/10/16 00:24:26;;;;;;;0.00;0.00;;;4.20;99.90;;;;;;5094286;28;20675;-61
2023/10/16 00:26:52;;;;;;;0.00;0.00;;;4.20;99.90;;;;;;5091288;28;20206;-61
2023/10/16 00:29:35;;;;;;;0.00;0.00;;;4.10;99.90;;;;;;5094150;28;20648;-61
2023/10/16 00:32:07;;;;;;;0.00;0.00;;;4.10;99.90;;;;;;5094338;28;20211;-62
2023/10/16 00:34:32;;;;;;;0.00;0.00;;;4.10;99.90;;;;;;5093064;28;20296;-61
2023/10/16 00:36:58;;;;;;;0.00;0.00;;;4.10;99.90;;;;;;5093909;28;20192;-62
2023/10/16 00:39:28;;;;;;;0.00;0.00;;;4.10;99.90;;;;;;5091791;28;20207;-62
2023/10/16 00:41:57;;;;;;;0.10;0.10;;;4.10;99.90;;;;;;5095076;28;20233;-62
2023/10/16 00:44:23;;;;;;;0.00;0.00;;;4.00;99.90;;;;;;5093702;28;20563;-62
2023/10/16 00:46:50;;;;;;;0.00;0.00;;;4.10;99.90;;;;;;5094709;28;20188;-62
2023/10/16 00:49:18;;;;;;;0.00;0.00;;;4.10;99.90;;;;;;5094905;28;20300;-62
2023/10/16 00:51:45;;;;;;;0.00;0.00;;;4.10;99.90;;;;;;5094965;28;20198;-62
2023/10/16 00:54:19;;;;;;;0.00;0.00;;;4.10;99.90;;;;;;5095018;28;20270;-62
2023/10/16 00:56:46;;;;;;;0.00;0.00;;;4.10;99.90;;;;;;5094923;28;20707;-62
2023/10/16 00:59:16;;;;;;;0.00;0.00;;;4.10;99.90;;;;;;5095065;28;20180;-63
2023/10/16 01:01:46;;;;;;;0.00;0.00;;;4.00;99.90;;;;;;5094549;28;20200;-61
2023/10/16 01:04:13;;;;;;;0.00;0.00;;;4.00;99.90;;;;;;5094692;28;20198;-61
2023/10/16 01:06:41;;;;;;;0.00;0.00;;;4.00;99.90;;;;;;5094427;28;20265;-61
2023/10/16 01:09:12;;;;;;;0.00;0.00;;;4.00;99.90;;;;;;5094859;28;20191;-61
2023/10/16 01:11:38;;;;;;;0.00;0.00;;;4.00;99.90;;;;;;5094639;28;20176;-61
2023/10/16 01:14:07;;;;;;;0.00;0.00;;;3.90;99.90;;;;;;5094770;28;20227;-61
2023/10/16 01:16:33;;;;;;;0.00;0.00;;;3.90;99.90;;;;;;5094617;28;20198;-61
2023/10/16 01:19:06;;;;;;;0.00;0.00;;;3.90;99.90;;;;;;5094582;28;20215;-61
2023/10/16 01:21:32;;;;;;;0.00;0.00;;;3.80;99.90;;;;;;5094631;28;20187;-61
2023/10/16 01:24:09;;;;;;;0.00;0.00;;;3.80;99.90;;;;;;5094575;28;20571;-61
2023/10/16 01:26:35;;;;;;;0.00;0.00;;;3.90;99.90;;;;;;5094252;28;20303;-61
2023/10/16 01:29:07;;;;;;;0.00;0.00;;;3.80;99.90;;;;;;5094470;28;20251;-62
2023/10/16 01:31:36;;;;;;;0.00;0.00;;;3.80;99.90;;;;;;5093434;28;20224;-61
2023/10/16 01:34:03;;;;;;;0.00;0.00;;;3.80;99.90;;;;;;5086593;28;20176;-61
2023/10/16 01:36:33;;;;;;;0.10;0.10;;;3.80;99.90;;;;;;5093608;28;20176;-61
2023/10/16 01:39:04;;;;;;;0.00;0.00;;;3.80;99.90;;;;;;5094280;28;20212;-61
2023/10/16 01:41:30;;;;;;;0.00;0.00;;;3.70;99.90;;;;;;5093914;28;20180;-61
2023/10/16 01:43:56;;;;;;;0.00;0.00;;;3.70;99.90;;;;;;5093708;28;20172;-61
2023/10/16 01:46:21;;;;;;;0.00;0.00;;;3.70;99.90;;;;;;5093641;28;20211;-62
2023/10/16 01:48:49;;;;;;;0.00;0.00;;;3.70;99.90;;;;;;5093556;28;20191;-61
2023/10/16 01:51:19;;;;;;;0.00;0.00;;;3.70;99.90;;;;;;5092318;28;20176;-61
2023/10/16 01:53:50;;;;;;;0.00;0.00;;;3.60;99.90;;;;;;5093338;28;20180;-62
2023/10/16 01:56:17;;;;;;;0.00;0.00;;;3.60;99.90;;;;;;5093326;28;20263;-62
2023/10/16 01:58:47;;;;;;;0.00;0.00;;;3.60;99.90;;;;;;5093701;28;20176;-62
2023/10/16 02:01:17;;;;;;;0.00;0.00;;;3.60;99.90;;;;;;5093348;28;20325;-62
2023/10/16 02:03:45;;;;;;;0.20;0.20;;;3.60;99.90;;;;;;5093222;28;20180;-62
2023/10/16 02:06:17;;;;;;;0.00;0.00;;;3.60;99.90;;;;;;5093014;28;20565;-62
2023/10/16 02:08:47;;;;;;;0.00;0.00;;;3.60;99.90;;;;;;5093016;28;20176;-62
2023/10/16 02:11:13;;;;;;;0.00;0.00;;;3.60;99.90;;;;;;5093536;28;20238;-62
2023/10/16 02:13:40;;;;;;;0.00;0.00;;;3.60;99.90;;;;;;5093107;28;20177;-61
2023/10/16 02:16:09;;;;;;;0.00;0.00;;;3.50;99.90;;;;;;5093201;28;20179;-62
2023/10/16 02:18:37;;;;;;;0.00;0.00;;;3.50;99.90;;;;;;5093121;28;20253;-62
2023/10/16 02:21:12;;;;;;;0.00;0.00;;;3.50;99.90;;;;;;5093323;28;20184;-62
2023/10/16 02:23:43;;;;;;;0.00;0.00;;;3.50;99.90;;;;;;5091878;28;20179;-61
2023/10/16 02:26:09;;;;;;;0.00;0.00;;;3.50;99.90;;;;;;5092790;28;20224;-62
2023/10/16 02:28:40;;;;;;;0.55;0.55;;;3.50;99.90;;;;;;5092619;28;20899;-61
2023/10/16 02:31:13;;;;;;;0.00;0.00;;;3.50;99.90;;;;;;5093123;28;20237;-61
2023/10/16 02:33:43;;;;;;;0.00;0.00;;;3.50;99.90;;;;;;5092676;28;20234;-61
2023/10/16 02:36:09;;;;;;;0.00;0.00;;;3.50;99.90;;;;;;5092632;28;20183;-61
2023/10/16 02:38:35;;;;;;;0.00;0.00;;;3.50;99.90;;;;;;5092452;28;20176;-61
2023/10/16 02:41:02;;;;;;;0.00;0.00;;;3.40;99.90;;;;;;5092615;28;20180;-61
2023/10/16 02:43:29;;;;;;;0.00;0.00;;;3.40;99.90;;;;;;5092556;28;20190;-61
2023/10/16 02:45:56;;;;;;;0.00;0.00;;;3.40;99.90;;;;;;5092495;28;20216;-62
2023/10/16 02:48:22;;;;;;;0.00;0.00;;;3.40;99.90;;;;;;5091829;28;20180;-62
2023/10/16 02:50:59;;;;;;;0.00;0.00;;;3.40;99.90;;;;;;5092470;28;20204;-62
2023/10/16 02:53:26;;;;;;;0.00;0.00;;;3.40;99.90;;;;;;5092206;28;20259;-61
2023/10/16 02:55:57;;;;;;;0.00;0.00;;;3.40;99.90;;;;;;5092443;28;20184;-61
2023/10/16 02:58:26;;;;;;;0.00;0.00;;;3.30;99.90;;;;;;5091916;28;20657;-62
2023/10/16 03:00:55;;;;;;;0.00;0.00;;;3.30;99.90;;;;;;5091129;28;20176;-61
2023/10/16 03:03:26;;;;;;;0.00;0.00;;;3.30;99.90;;;;;;5091961;28;20216;-62
2023/10/16 03:05:55;;;;;;;0.00;0.00;;;3.30;99.90;;;;;;5091950;28;20556;-61
2023/10/16 03:08:29;;;;;;;0.00;0.00;;;3.30;99.90;;;;;;5091782;28;20261;-62
2023/10/16 03:11:06;;;;;;;0.00;0.00;;;3.20;99.90;;;;;;5092358;28;20184;-62
2023/10/16 03:13:39;;;;;;;0.00;0.00;;;3.20;99.90;;;;;;5092188;28;20549;-62
2023/10/16 03:16:08;;;;;;;0.00;0.00;;;3.20;99.90;;;;;;5091896;28;20681;-62
2023/10/16 03:18:34;;;;;;;0.00;0.00;;;3.20;99.90;;;;;;5092068;28;20176;-61
2023/10/16 03:21:26;;;;;;;0.00;0.00;;;3.20;99.90;;;;;;5091979;28;20180;-62
2023/10/16 03:23:52;;;;;;;0.25;0.25;;;3.10;99.90;;;;;;5092163;28;20186;-62
2023/10/16 03:26:28;;;;;;;0.00;0.00;;;3.10;99.90;;;;;;5091514;28;20212;-63
2023/10/16 03:28:56;;;;;;;0.00;0.00;;;3.00;99.90;;;;;;5091952;28;20168;-64
2023/10/16 03:31:22;;;;;;;0.00;0.00;;;3.00;99.90;;;;;;5091668;28;20215;-64
2023/10/16 03:33:53;;;;;;;0.00;0.00;;;2.90;99.90;;;;;;5091821;28;20191;-65
2023/10/16 03:36:19;;;;;;;0.00;0.00;;;2.90;99.90;;;;;;5090981;28;20659;-65
2023/10/16 03:38:45;;;;;;;0.00;0.00;;;2.90;99.90;;;;;;5091356;28;20180;-63
2023/10/16 03:43:47;;;;;;;0.00;0.00;;;2.80;99.90;;;;;;5091456;28;20264;-65
2023/10/16 03:46:13;;;;;;;0.00;0.00;;;2.80;99.90;;;;;;5091710;28;20219;-64
2023/10/16 03:48:39;;;;;;;0.00;0.00;;;2.90;99.90;;;;;;5090312;28;20544;-66
2023/10/16 03:51:08;;;;;;;0.00;0.00;;;2.90;99.90;;;;;;5090813;28;20180;-62
2023/10/16 03:53:35;;;;;;;0.00;0.00;;;2.90;99.90;;;;;;5091373;28;20172;-64
2023/10/16 03:56:02;;;;;;;0.10;0.10;;;2.90;99.90;;;;;;5091455;28;20191;-65
2023/10/16 03:58:28;;;;;;;0.00;0.00;;;2.90;99.90;;;;;;5091338;28;20247;-63
2023/10/16 04:00:53;;;;;;;0.00;0.00;;;2.90;99.90;;;;;;5089906;28;20571;-64
2023/10/16 04:03:21;;;;;;;0.00;0.00;;;2.90;99.90;;;;;;5091185;28;20207;-63
2023/10/16 04:05:47;;;;;;;0.00;0.00;;;2.90;99.90;;;;;;5091300;28;20253;-67
2023/10/16 04:08:14;;;;;;;0.00;0.00;;;2.80;99.90;;;;;;5091239;28;20539;-61
2023/10/16 04:10:46;;;;;;;0.00;0.00;;;2.80;99.90;;;;;;5090302;28;20639;-61
2023/10/16 04:13:13;;;;;;;0.00;0.00;;;2.80;99.90;;;;;;5091355;28;20176;-61
2023/10/16 04:31:44;;;;;;;0.00;0.00;;;2.50;99.90;;;;;;5095330;28;20261;-61
2023/10/16 04:45:38;;;;;;;0.22;0.22;;;2.20;99.90;;;;;;5095221;28;20254;-62
2023/10/16 05:00:56;;;;;;;0.00;0.00;;;1.90;99.90;;;;;;5094896;28;20263;-61
2023/10/16 05:06:14;;;;;;;0.00;0.00;;;1.70;99.90;;;;;;5094828;28;20232;-61
2023/10/16 05:09:53;;;;;;;0.00;0.00;;;1.70;99.90;;;;;;5094699;28;20545;-61
2023/10/16 06:14:17;;;;;;;0.22;0.22;;;1.60;99.90;;;;;;5093892;28;20180;-61
2023/10/16 06:16:48;;;;;;;0.00;0.00;;;1.60;99.90;;;;;;5093575;28;20164;-61
2023/10/16 06:19:17;;;;;;;0.00;0.00;;;1.70;99.90;;;;;;5093577;28;20215;-61
2023/10/16 06:21:56;;;;;;;0.00;0.00;;;1.70;99.90;;;;;;5093451;28;20256;-61
2023/10/16 06:24:33;;;;;;;0.00;0.00;;;1.70;99.90;;;;;;5093284;28;20250;-62
2023/10/16 06:27:09;;;;;;;0.00;0.00;;;1.70;99.90;;;;;;5093395;28;20651;-61
2023/10/16 06:29:41;;;;;;;0.00;0.00;;;1.70;99.90;;;;;;5093258;28;20183;-63
2023/10/16 06:32:07;;;;;;;0.00;0.00;;;1.80;99.90;;;;;;5091691;28;20265;-61
2023/10/16 06:34:34;;;;;;;0.00;0.00;;;1.90;99.90;;;;;;5093166;28;20206;-61
2023/10/16 06:37:05;;;;;;;0.15;0.15;;;2.00;99.90;;;;;;5092620;28;20208;-61
2023/10/16 06:39:37;;;;;;;0.00;0.00;;;2.10;99.90;;;;;;5093080;28;20183;-61
2023/10/16 06:42:03;;;;;;;0.00;0.00;;;2.20;99.90;;;;;;5093094;28;20178;-60
2023/10/16 06:44:29;;;;;;;0.00;0.00;;;2.40;99.90;;;;;;5092762;28;20172;-61
2023/10/16 06:46:59;;;;;;;0.00;0.00;;;2.50;99.90;;;;;;5093054;28;20180;-61
2023/10/16 06:49:35;;;;;;;0.00;0.00;;;2.60;99.90;;;;;;5092985;28;20657;-61
2023/10/16 06:52:05;;;;;;;0.00;0.00;;;2.70;99.90;;;;;;5093181;28;20172;-61
2023/10/16 06:54:40;;;;;;;0.00;0.00;;;2.90;99.90;;;;;;5092755;28;20179;-61
2023/10/16 06:57:12;;;;;;;0.00;0.00;;;3.00;99.90;;;;;;5092916;28;20184;-61
2023/10/16 06:59:50;;;;;;;0.00;0.00;;;3.10;99.90;;;;;;5092761;28;20168;-62
2023/10/16 07:02:19;;;;;;;0.00;0.00;;;3.20;99.90;;;;;;5092755;28;20188;-61
2023/10/16 07:04:46;;;;;;;0.00;0.00;;;3.20;99.90;;;;;;5092418;28;20259;-61
2023/10/16 07:07:16;;;;;;;0.00;0.00;;;3.20;99.90;;;;;;5092631;28;20168;-62
2023/10/16 07:09:49;;;;;;;0.00;0.00;;;3.40;99.90;;;;;;5091303;28;20176;-61
2023/10/16 07:12:18;;;;;;;0.00;0.00;;;3.50;99.90;;;;;;5092562;28;20175;-61
2023/10/16 07:14:55;;;;;;;0.00;0.00;;;3.70;99.90;;;;;;5092353;28;20654;-61
2023/10/16 07:17:27;;;;;;;0.00;0.00;;;4.00;99.90;;;;;;5092485;28;20184;-61
2023/10/16 07:19:58;;;;;;;0.00;0.00;;;4.30;99.90;;;;;;5092456;28;20534;-61
2023/10/16 07:22:31;;;;;;;0.00;0.00;;;4.60;99.90;;;;;;5092464;28;20180;-60
2023/10/16 07:25:22;;;;;;;0.03;0.03;;;4.70;99.90;;;;;;5092394;28;20204;-60
2023/10/16 07:27:46;;;;;;;0.00;0.00;;;4.70;99.90;;;;;;5092003;28;20662;-60
2023/10/16 07:30:25;;;;;;;0.00;0.00;;;4.90;99.90;;;;;;5091924;28;20184;-60
2023/10/16 07:32:51;;;;;;;0.15;0.15;;;4.90;99.90;;;;;;5091975;28;20220;-60
2023/10/16 07:35:18;;;;;;;0.00;0.00;;;5.00;99.90;;;;;;5092121;28;20529;-60
2023/10/16 07:37:53;;;;;;;0.00;0.00;;;5.10;99.90;;;;;;5092040;28;20266;-60
2023/10/16 07:40:20;;;;;;;0.00;0.00;;;5.20;99.90;;;;;;5091958;28;20534;-61
2023/10/16 07:42:49;;;;;;;0.00;0.00;;;5.40;99.90;;;;;;5091836;28;20179;-61
2023/10/16 07:45:15;;;;;;;0.00;0.00;;;5.50;99.90;;;;;;5091849;28;20200;-61
2023/10/16 07:47:41;;;;;;;0.00;0.00;;;5.60;99.90;;;;;;5091842;28;20190;-61
2023/10/16 07:50:07;;;;;;;0.00;0.00;;;5.80;99.90;;;;;;5091000;28;20171;-61
2023/10/16 07:52:34;;;;;;;0.00;0.00;;;5.90;99.90;;;;;;5091717;28;20212;-61
2023/10/16 07:55:02;;;;;;;0.00;0.00;;;6.20;99.90;;;;;;5091994;28;20180;-61
2023/10/16 07:57:27;;;;;;;0.08;0.08;;;6.40;99.90;;;;;;5090454;28;20171;-61
2023/10/16 07:59:54;;;;;;;0.00;0.00;;;6.80;99.90;;;;;;5091686;28;20519;-61
2023/10/16 08:02:20;;;;;;;0.00;0.00;;;7.30;99.90;;;;;;5091764;28;20211;-62
2023/10/16 08:04:51;;;;;;;0.00;0.00;;;7.60;99.90;;;;;;5091638;28;20172;-61
2023/10/16 08:07:18;;;;;;;0.10;0.10;;;7.90;99.90;;;;;;5091739;28;20184;-61
2023/10/16 08:12:20;;;;;;;0.00;0.00;;;8.80;99.90;;;;;;5091704;28;20237;-61
2023/10/16 08:14:47;;;;;;;0.00;0.00;;;9.20;99.90;;;;;;5091553;28;20175;-61
2023/10/16 08:17:16;;;;;;;0.00;0.00;;;9.50;99.90;;;;;;5091688;28;20503;-61
2023/10/16 08:19:43;;;;;;;0.30;0.30;;;9.70;99.90;;;;;;5091474;28;20666;-62
2023/10/16 08:22:13;;;;;;;0.00;0.00;;;9.80;99.90;;;;;;5091425;28;20234;-60
2023/10/16 08:24:43;;;;;;;0.00;0.00;;;10.10;99.90;;;;;;5091385;28;20259;-61
2023/10/16 08:27:19;;;;;;;0.25;0.25;;;10.20;99.90;;;;;;5091340;28;20746;-62
2023/10/16 08:29:53;;;;;;;0.08;0.08;;;10.20;99.90;;;;;;5091467;28;20267;-61
2023/10/16 08:35:09;;;;;;;0.05;0.05;;;10.10;99.90;;;;;;5091416;28;20536;-62
2023/10/16 08:37:40;;;;;;;0.00;0.00;;;10.00;99.90;;;;;;5091383;28;20255;-61
2023/10/16 08:40:18;;;;;;;0.00;0.00;;;9.90;99.90;;;;;;5091317;28;20211;-61
2023/10/16 08:42:50;;;;;;;0.00;0.00;;;9.90;99.90;;;;;;5091297;28;20263;-61
2023/10/16 08:45:23;;;;;;;0.00;0.00;;;9.90;99.90;;;;;;5091302;28;20204;-62
2023/10/16 08:47:51;;;;;;;0.00;0.00;;;9.80;99.90;;;;;;5091190;28;20184;-61
2023/10/16 08:50:20;;;;;;;0.00;0.00;;;9.80;99.90;;;;;;5091303;28;20251;-61
2023/10/16 08:52:58;;;;;;;0.00;0.00;;;9.90;99.90;;;;;;5091170;28;20186;-61
2023/10/16 08:55:27;;;;;;;0.00;0.00;;;9.80;99.90;;;;;;5091231;28;20184;-62
2023/10/16 08:57:53;;;;;;;0.00;0.00;;;9.80;99.90;;;;;;5091371;28;20555;-61
2023/10/16 09:00:23;;;;;;;0.20;0.20;;;9.90;99.90;;;;;;5091913;28;20172;-62
2023/10/16 09:02:51;;;;;;;0.00;0.00;;;10.00;99.90;;;;;;5095079;28;20177;-61
2023/10/16 09:05:16;;;;;;;0.00;0.00;;;10.20;99.90;;;;;;5094905;28;20200;-61
2023/10/16 09:07:42;;;;;;;0.05;0.05;;;10.30;99.90;;;;;;5093577;28;20595;-62
2023/10/16 09:10:11;;;;;;;0.13;0.10;;;10.50;99.90;;;;;;5094746;28;20192;-62
2023/10/16 09:12:52;;;;;;;0.00;0.00;;;10.60;99.90;;;;;;5094815;28;20176;-62
2023/10/16 09:15:24;;;;;;;0.10;0.10;;;10.80;99.90;;;;;;5094845;28;20251;-62
2023/10/16 09:17:51;;;;;;;0.03;0.03;;;10.80;99.90;;;;;;5094625;28;20176;-61
2023/10/16 09:20:22;;;;;;;0.00;0.00;;;10.90;99.90;;;;;;5094640;28;20666;-61
2023/10/16 09:22:48;;;;;;;0.00;0.00;;;10.90;99.90;;;;;;5094553;28;20180;-61
2023/10/16 09:25:15;;;;;;;0.00;0.00;;;10.70;99.90;;;;;;5094509;28;20237;-62
2023/10/16 09:27:45;;;;;;;0.00;0.00;;;10.70;99.90;;;;;;5094455;28;20249;-62
2023/10/16 09:30:14;;;;;;;0.00;0.00;;;10.80;99.90;;;;;;5094458;28;20317;-61
2023/10/16 09:32:40;;;;;;;0.00;0.00;;;10.90;99.90;;;;;;5094147;28;20300;-61
2023/10/16 09:35:13;;;;;;;0.00;0.00;;;11.10;99.90;;;;;;5093076;28;20176;-61
2023/10/16 09:37:39;;;;;;;0.00;0.00;;;11.20;99.90;;;;;;5094349;28;20217;-61
2023/10/16 09:40:08;;;;;;;0.00;0.00;;;11.20;99.90;;;;;;5094209;28;20179;-62
2023/10/16 09:42:37;;;;;;;0.00;0.00;;;11.30;99.90;;;;;;5094214;28;20184;-62
2023/10/16 09:45:18;;;;;;;0.00;0.00;;;11.50;99.90;;;;;;5094062;28;20204;-61
2023/10/16 09:47:51;;;;;;;0.00;0.00;;;11.60;99.60;;;;;;5094143;28;20539;-61
2023/10/16 09:50:18;;;;;;;0.00;0.00;;;11.50;99.40;;;;;;5094125;28;20309;-61
2023/10/16 09:52:45;;;;;;;0.00;0.00;;;11.50;99.60;;;;;;5094069;28;20183;-61
2023/10/16 09:55:12;;;;;;;0.00;0.00;;;11.60;99.80;;;;;;5094044;28;20253;-61
2023/10/16 09:57:49;;;;;;;0.00;0.00;;;11.80;99.90;;;;;;5093954;28;20504;-62
2023/10/16 10:03:05;;;;;;;0.10;0.10;;;12.30;99.90;;;;;;5093994;28;20172;-62
2023/10/16 10:06:06;;;;;;;0.00;0.00;;;12.50;99.10;;;;;;5093660;28;20200;-62
2023/10/16 10:09:20;;;;;;;0.00;0.00;;;12.50;98.60;;;;;;5093713;28;20639;-61
2023/10/16 10:11:45;;;;;;;0.00;0.00;;;12.50;98.50;;;;;;5093053;28;20673;-62
2023/10/16 10:16:56;;;;;;;0.00;0.00;;;12.50;97.60;;;;;;5093555;28;20164;-60
2023/10/16 10:19:35;;;;;;;0.00;0.00;;;12.50;97.40;;;;;;5094675;28;20255;-62
2023/10/16 10:22:17;;;;;;;0.00;0.00;;;12.50;97.60;;;;;;5096918;28;20176;-62
2023/10/16 10:25:06;;;;;;;0.00;0.00;;;12.50;96.70;;;;;;5099050;28;20184;-62
2023/10/16 10:27:32;;;;;;;0.00;0.00;;;12.40;96.60;;;;;;5097780;28;20180;-61
2023/10/16 10:30:02;;;;;;;0.00;0.00;;;12.30;96.90;;;;;;5095813;28;20183;-62
2023/10/16 10:32:28;;;;;;;0.00;0.00;;;12.30;97.30;;;;;;5100463;28;20219;-62
2023/10/16 10:35:26;;;;;;;0.00;0.00;;;12.40;96.90;;;;;;5099402;28;20177;-61
2023/10/16 10:38:07;;;;;;;0.00;0.00;;;12.60;96.30;;;;;;5098447;28;20171;-61
2023/10/16 10:40:33;;;;;;;0.00;0.00;;;12.70;96.10;;;;;;5093145;28;20172;-61
2023/10/16 10:43:02;;;;;;;0.00;0.00;;;12.90;95.80;;;;;;5093216;28;20176;-61
2023/10/16 10:45:34;;;;;;;0.00;0.00;;;13.00;95.50;;;;;;5092870;28;20211;-61
2023/10/16 10:48:09;;;;;;;0.00;0.00;;;13.00;94.70;;;;;;5091757;28;20772;-61
2023/10/16 10:50:38;;;;;;;0.00;0.00;;;12.90;95.10;;;;;;5092906;28;20542;-61
2023/10/16 10:53:13;;;;;;;0.00;0.00;;;13.00;94.60;;;;;;5093188;28;20638;-61
2023/10/16 10:55:55;;;;;;;0.00;0.00;;;13.10;94.30;;;;;;5092802;28;20180;-61
2023/10/16 10:58:23;;;;;;;0.00;0.00;;;13.10;94.30;;;;;;5092712;28;20651;-62
2023/10/16 11:00:50;;;;;;;0.00;0.00;;;13.20;94.00;;;;;;5092739;28;20230;-61
2023/10/16 11:03:41;;;;;;;0.10;0.10;;;13.30;93.10;;;;;;5092584;28;20180;-62
2023/10/16 11:06:18;;;;;;;0.00;0.00;;;13.30;92.70;;;;;;5092516;28;20235;-62
2023/10/16 11:08:53;;;;;;;0.00;0.00;;;13.40;92.70;;;;;;5092540;28;20174;-62
2023/10/16 11:11:19;;;;;;;0.00;0.00;;;13.30;91.50;;;;;;5092790;28;20232;-62
2023/10/16 11:13:48;;;;;;;0.00;0.00;;;13.30;92.00;;;;;;5092425;28;20719;-62
2023/10/16 11:16:17;;;;;;;0.00;0.00;;;13.40;91.50;;;;;;5092549;28;20725;-62
2023/10/16 11:18:57;;;;;;;0.00;0.00;;;13.30;90.90;;;;;;5092361;28;20172;-62
2023/10/16 11:21:25;;;;;;;0.00;0.00;;;13.40;91.00;;;;;;5092289;28;20171;-63
2023/10/16 11:23:55;;;;;;;0.00;0.00;;;13.50;91.10;;;;;;5092293;28;20186;-63
2023/10/16 11:26:27;;;;;;;0.00;0.00;;;13.50;90.90;;;;;;5092326;28;20211;-63
2023/10/16 11:28:54;;;;;;;0.00;0.00;;;13.60;90.90;;;;;;5090962;28;20168;-61
2023/10/16 11:31:21;;;;;;;0.00;0.00;;;13.70;89.30;;;;;;5092082;28;20545;-62
2023/10/16 11:34:06;;;;;;;0.00;0.00;;;13.60;89.40;;;;;;5090728;28;20172;-62
2023/10/16 11:36:34;;;;;;;0.00;0.00;;;13.60;89.80;;;;;;5092099;28;20225;-62
2023/10/16 11:39:06;;;;;;;0.00;0.00;;;13.60;90.10;;;;;;5092096;28;20200;-62
2023/10/16 11:41:32;;;;;;;0.00;0.00;;;13.50;90.60;;;;;;5091969;28;20187;-62
2023/10/16 11:44:03;;;;;;;0.00;0.00;;;13.50;90.40;;;;;;5090758;28;20176;-62
2023/10/16 11:46:30;;;;;;;0.00;0.00;;;13.60;90.70;;;;;;5091802;28;20216;-62
2023/10/16 11:49:22;;;;;;;0.00;0.00;;;13.90;90.60;;;;;;5092043;28;20180;-62
2023/10/16 11:52:08;;;;;;;0.00;0.00;;;13.90;90.20;;;;;;5091725;28;20183;-62
2023/10/16 11:54:34;;;;;;;0.00;0.00;;;13.80;90.20;;;;;;5091862;28;20628;-62
2023/10/16 11:57:00;;;;;;;0.00;0.00;;;13.80;90.80;;;;;;5091969;28;20180;-62
2023/10/16 11:59:28;;;;;;;0.00;0.00;;;13.90;90.60;;;;;;5091711;28;20187;-62
2023/10/16 12:01:59;;;;;;;0.00;0.00;;;13.80;90.10;;;;;;5091872;28;20176;-62
2023/10/16 12:04:26;;;;;;;0.00;0.00;;;13.80;90.40;;;;;;5091789;28;20637;-62
2023/10/16 12:06:52;;;;;;;0.00;0.00;;;13.80;90.60;;;;;;5091655;28;20564;-62
2023/10/16 12:09:21;;;;;;;0.00;0.00;;;13.80;89.70;;;;;;5091806;28;20202;-62
2023/10/16 12:11:49;;;;;;;0.00;0.00;;;13.90;89.70;;;;;;5091648;28;20238;-62
2023/10/16 12:14:15;;;;;;;0.00;0.00;;;14.00;89.30;;;;;;5091543;28;20214;-63
2023/10/16 12:16:45;;;;;;;0.00;0.00;;;14.00;88.40;;;;;;5091480;28;20204;-63
2023/10/16 12:19:16;;;;;;;0.10;0.10;;;14.00;88.30;;;;;;5091711;28;20176;-63
2023/10/16 12:21:43;;;;;;;0.00;0.00;;;14.10;88.30;;;;;;5091589;28;20224;-62
2023/10/16 12:24:10;;;;;;;0.00;0.00;;;14.10;88.20;;;;;;5091458;28;20168;-63
2023/10/16 12:26:42;;;;;;;0.00;0.00;;;14.00;88.40;;;;;;5091236;28;20799;-63
2023/10/16 12:29:08;;;;;;;0.00;0.00;;;13.90;87.80;;;;;;5091379;28;20164;-63
2023/10/16 12:31:35;;;;;;;0.10;0.10;;;13.80;87.00;;;;;;5091195;28;20222;-62
2023/10/16 12:34:00;;;;;;;0.00;0.00;;;13.70;86.90;;;;;;5091521;28;20223;-62
2023/10/16 12:36:26;;;;;;;0.00;0.00;;;13.70;86.80;;;;;;5093707;28;20183;-62
2023/10/16 12:38:55;;;;;;;0.00;0.00;;;13.70;88.00;;;;;;5095444;28;20239;-62
2023/10/16 12:41:21;;;;;;;0.00;0.00;;;13.70;87.30;;;;;;5095393;28;20184;-63
2023/10/16 12:43:48;;;;;;;0.00;0.00;;;13.70;87.00;;;;;;5095049;28;20184;-62
2023/10/16 12:46:13;;;;;;;0.00;0.00;;;13.70;86.50;;;;;;5095209;28;20230;-62
2023/10/16 12:48:39;;;;;;;0.00;0.00;;;13.70;86.90;;;;;;5095263;28;20176;-62
2023/10/16 12:51:08;;;;;;;0.00;0.00;;;13.70;87.50;;;;;;5095169;28;20187;-62
2023/10/16 12:53:36;;;;;;;0.00;0.00;;;13.70;86.40;;;;;;5095081;28;20576;-62
2023/10/16 12:56:05;;;;;;;0.00;0.00;;;13.70;84.40;;;;;;5095236;28;20225;-63
2023/10/16 12:58:31;;;;;;;0.00;0.00;;;13.60;83.60;;;;;;5095082;28;20202;-62
2023/10/16 13:00:58;;;;;;;0.00;0.00;;;13.60;83.30;;;;;;5095062;28;20174;-61
2023/10/16 13:03:24;;;;;;;0.00;0.00;;;13.60;84.00;;;;;;5094852;28;20172;-62
2023/10/16 13:05:52;;;;;;;0.00;0.00;;;13.60;84.50;;;;;;5094797;28;20689;-62
2023/10/16 13:08:20;;;;;;;0.00;0.00;;;13.50;83.00;;;;;;5094923;28;20190;-62
2023/10/16 13:10:48;;;;;;;0.10;0.10;;;13.40;83.20;;;;;;5094708;28;20666;-61
2023/10/16 13:13:15;;;;;;;0.00;0.00;;;13.40;83.00;;;;;;5094864;28;20172;-61
2023/10/16 13:15:45;;;;;;;0.00;0.00;;;13.30;83.20;;;;;;5094627;28;20241;-62
2023/10/16 13:18:11;;;;;;;0.00;0.00;;;13.30;82.70;;;;;;5094705;28;20670;-62
2023/10/16 13:20:37;;;;;;;0.00;0.00;;;13.30;82.60;;;;;;5094616;28;20180;-61
2023/10/16 13:23:05;;;;;;;0.00;0.00;;;13.30;83.00;;;;;;5094576;28;20198;-62
2023/10/16 13:25:31;;;;;;;0.00;0.00;;;13.30;83.40;;;;;;5094498;28;20284;-62
2023/10/16 13:27:58;;;;;;;0.00;0.00;;;13.20;81.80;;;;;;5094484;28;20222;-63
2023/10/16 13:30:25;;;;;;;0.00;0.00;;;13.30;82.00;;;;;;5094405;28;20180;-62
2023/10/16 13:32:51;;;;;;;0.00;0.00;;;13.40;81.90;;;;;;5094274;28;20815;-61
2023/10/16 13:35:20;;;;;;;0.30;0.30;;;13.30;81.10;;;;;;5094402;28;20176;-62
2023/10/16 13:37:50;;;;;;;0.00;0.00;;;13.20;80.80;;;;;;5094051;28;20188;-61
2023/10/16 13:40:20;;;;;;;0.00;0.00;;;13.20;82.00;;;;;;5094225;28;20263;-62
2023/10/16 13:42:54;;;;;;;0.00;0.00;;;13.20;83.40;;;;;;5092838;28;20233;-61
2023/10/16 13:45:21;;;;;;;0.00;0.00;;;13.20;83.00;;;;;;5094118;28;20208;-63
2023/10/16 13:47:49;;;;;;;0.00;0.00;;;13.20;82.60;;;;;;5092489;28;20708;-62
2023/10/16 13:50:17;;;;;;;0.00;0.00;;;13.20;81.70;;;;;;5094291;28;20525;-62
2023/10/16 13:52:44;;;;;;;0.00;0.00;;;13.10;82.30;;;;;;5093787;28;20172;-62
2023/10/16 13:55:20;;;;;;;0.00;0.00;;;13.10;81.90;;;;;;5093901;28;20180;-62
2023/10/16 13:57:47;;;;;;;0.00;0.00;;;13.10;80.60;;;;;;5093840;28;20184;-62
2023/10/16 14:00:29;;;;;;;0.00;0.00;;;13.00;80.80;;;;;;5093967;28;20211;-62
2023/10/16 14:02:56;;;;;;;0.00;0.00;;;13.00;81.00;;;;;;5093926;28;20172;-62
2023/10/16 14:05:22;;;;;;;0.00;0.00;;;13.00;81.80;;;;;;5093667;28;20515;-63
2023/10/16 14:07:48;;;;;;;0.00;0.00;;;13.10;81.50;;;;;;5093686;28;20253;-62
2023/10/16 14:10:13;;;;;;;0.00;0.00;;;13.00;81.40;;;;;;5093786;28;20164;-62
2023/10/16 14:12:41;;;;;;;0.00;0.00;;;12.90;81.30;;;;;;5093629;28;20219;-61
2023/10/16 14:15:15;;;;;;;0.00;0.00;;;12.90;81.40;;;;;;5092311;28;20624;-62
2023/10/16 14:17:43;;;;;;;0.00;0.00;;;12.80;81.90;;;;;;5093561;28;20184;-62
2023/10/16 14:20:12;;;;;;;0.00;0.00;;;12.80;82.70;;;;;;5093454;28;20302;-62
2023/10/16 14:22:47;;;;;;;0.00;0.00;;;12.80;82.30;;;;;;5092930;28;20214;-60
2023/10/16 14:25:13;;;;;;;0.00;0.00;;;12.80;83.20;;;;;;5093372;28;20206;-60
2023/10/16 14:27:39;;;;;;;0.00;0.00;;;12.80;83.90;;;;;;5091927;28;20522;-61
2023/10/16 14:30:08;;;;;;;0.00;0.00;;;12.80;83.90;;;;;;5092980;28;20667;-61
2023/10/16 14:32:34;;;;;;;0.00;0.00;;;12.80;83.70;;;;;;5092538;28;20582;-61
2023/10/16 14:35:00;;;;;;;0.00;0.00;;;12.80;83.30;;;;;;5093255;28;20226;-61
2023/10/16 14:37:26;;;;;;;0.00;0.00;;;12.80;83.60;;;;;;5093067;28;20180;-61
2023/10/16 14:39:56;;;;;;;0.00;0.00;;;12.80;83.40;;;;;;5092646;28;20536;-64
2023/10/16 14:42:22;;;;;;;0.00;0.00;;;12.80;82.90;;;;;;5092382;28;20180;-62
2023/10/16 14:44:48;;;;;;;0.10;0.10;;;12.80;83.20;;;;;;5092638;28;20183;-63
2023/10/16 14:47:15;;;;;;;0.00;0.00;;;12.80;82.90;;;;;;5092908;28;20301;-63
2023/10/16 14:49:41;;;;;;;0.00;0.00;;;12.70;82.80;;;;;;5092954;28;20200;-63
2023/10/16 14:52:07;;;;;;;0.00;0.00;;;12.70;83.20;;;;;;5092360;28;20237;-63
2023/10/16 14:54:33;;;;;;;0.00;0.00;;;12.60;83.80;;;;;;5092672;28;20180;-63
2023/10/16 14:57:00;;;;;;;0.00;0.00;;;12.60;84.30;;;;;;5096390;28;20631;-61
2023/10/16 14:59:26;;;;;;;0.00;0.00;;;12.60;84.20;;;;;;5096437;28;20172;-61
2023/10/16 15:01:54;;;;;;;0.10;0.10;;;12.50;83.80;;;;;;5096387;28;20172;-62
2023/10/16 15:04:20;;;;;;;0.00;0.00;;;12.50;83.90;;;;;;5096687;28;20244;-62
2023/10/16 15:06:46;;;;;;;0.00;0.00;;;12.40;83.40;;;;;;5092993;28;20306;-63